sensor_id;sensor_type;location;lat;lon;timestamp;P1;durP1;ratioP1;P2;durP2;ratioP2
4074;SDS011;2052;53.522;9.806;2023-06-24T00:02:06;23.07;;;12.73;;
4074;SDS011;2052;53.522;9.806;2023-06-24T00:04:33;27.30;;;14.73;;
4074;SDS011;2052;53.522;9.806;2023-06-24T00:07:01;20.20;;;13.40;;
4074;SDS011;2052;53.522;9.806;2023-06-24T00:09:28;22.47;;;13.17;;
4074;SDS011;2052;53.522;9.806;2023-06-24T00:11:55;23.47;;;14.03;;
4074;SDS011;2052;53.522;9.806;2023-06-24T00:14:23;22.70;;;13.30;;
4074;SDS011;2052;53.522;9.806;2023-06-24T00:16:51;18.50;;;12.17;;
4074;SDS011;2052;53.522;9.806;2023-06-24T00:19:18;23.57;;;13.80;;
4074;SDS011;2052;53.522;9.806;2023-06-24T00:21:45;24.57;;;15.07;;
4074;SDS011;2052;53.522;9.806;2023-06-24T00:24:14;31.70;;;16.20;;
4074;SDS011;2052;53.522;9.806;2023-06-24T00:26:40;24.93;;;15.90;;
4074;SDS011;2052;53.522;9.806;2023-06-24T00:29:07;25.00;;;16.17;;
4074;SDS011;2052;53.522;9.806;2023-06-24T00:31:36;25.57;;;15.77;;
4074;SDS011;2052;53.522;9.806;2023-06-24T00:34:04;30.30;;;14.20;;
4074;SDS011;2052;53.522;9.806;2023-06-24T00:36:30;28.63;;;15.50;;
4074;SDS011;2052;53.522;9.806;2023-06-24T00:38:59;30.87;;;14.70;;
4074;SDS011;2052;53.522;9.806;2023-06-24T00:41:31;25.73;;;15.30;;
4074;SDS011;2052;53.522;9.806;2023-06-24T00:43:59;24.20;;;14.47;;
4074;SDS011;2052;53.522;9.806;2023-06-24T00:46:27;31.00;;;16.53;;
4074;SDS011;2052;53.522;9.806;2023-06-24T00:48:57;26.07;;;16.30;;
4074;SDS011;2052;53.522;9.806;2023-06-24T00:51:25;24.80;;;15.07;;
4074;SDS011;2052;53.522;9.806;2023-06-24T00:53:55;32.50;;;18.37;;
4074;SDS011;2052;53.522;9.806;2023-06-24T00:56:23;24.40;;;13.77;;
4074;SDS011;2052;53.522;9.806;2023-06-24T00:58:53;24.57;;;15.53;;
4074;SDS011;2052;53.522;9.806;2023-06-24T01:01:20;29.40;;;15.33;;
4074;SDS011;2052;53.522;9.806;2023-06-24T01:03:49;28.87;;;16.43;;
4074;SDS011;2052;53.522;9.806;2023-06-24T01:06:16;28.43;;;16.30;;
4074;SDS011;2052;53.522;9.806;2023-06-24T01:08:42;26.23;;;14.27;;
4074;SDS011;2052;53.522;9.806;2023-06-24T01:11:15;27.87;;;17.33;;
4074;SDS011;2052;53.522;9.806;2023-06-24T01:13:42;33.33;;;17.17;;
4074;SDS011;2052;53.522;9.806;2023-06-24T01:16:13;27.33;;;16.00;;
4074;SDS011;2052;53.522;9.806;2023-06-24T01:18:46;30.50;;;17.63;;
4074;SDS011;2052;53.522;9.806;2023-06-24T01:21:15;29.73;;;16.10;;
4074;SDS011;2052;53.522;9.806;2023-06-24T01:24:01;30.23;;;16.77;;
4074;SDS011;2052;53.522;9.806;2023-06-24T01:26:47;27.70;;;15.67;;
4074;SDS011;2052;53.522;9.806;2023-06-24T01:29:47;25.03;;;15.30;;
4074;SDS011;2052;53.522;9.806;2023-06-24T01:32:22;30.70;;;17.10;;
4074;SDS011;2052;53.522;9.806;2023-06-24T01:34:56;35.50;;;18.30;;
4074;SDS011;2052;53.522;9.806;2023-06-24T01:37:26;31.53;;;17.53;;
4074;SDS011;2052;53.522;9.806;2023-06-24T01:39:56;31.53;;;17.57;;
4074;SDS011;2052;53.522;9.806;2023-06-24T01:42:32;26.50;;;16.23;;
4074;SDS011;2052;53.522;9.806;2023-06-24T01:44:59;28.90;;;17.27;;
4074;SDS011;2052;53.522;9.806;2023-06-24T01:47:27;33.30;;;18.80;;
4074;SDS011;2052;53.522;9.806;2023-06-24T01:49:58;29.10;;;18.10;;
4074;SDS011;2052;53.522;9.806;2023-06-24T01:52:26;33.90;;;18.60;;
4074;SDS011;2052;53.522;9.806;2023-06-24T01:54:55;35.00;;;17.53;;
4074;SDS011;2052;53.522;9.806;2023-06-24T01:57:22;29.73;;;16.50;;
4074;SDS011;2052;53.522;9.806;2023-06-24T01:59:49;37.47;;;19.17;;
4074;SDS011;2052;53.522;9.806;2023-06-24T02:02:16;29.43;;;18.43;;
4074;SDS011;2052;53.522;9.806;2023-06-24T02:04:46;34.80;;;18.10;;
4074;SDS011;2052;53.522;9.806;2023-06-24T02:07:14;37.60;;;19.60;;
4074;SDS011;2052;53.522;9.806;2023-06-24T02:09:41;27.50;;;17.03;;
4074;SDS011;2052;53.522;9.806;2023-06-24T02:12:10;36.47;;;18.83;;
4074;SDS011;2052;53.522;9.806;2023-06-24T02:14:38;40.33;;;21.73;;
4074;SDS011;2052;53.522;9.806;2023-06-24T02:17:06;45.70;;;22.07;;
4074;SDS011;2052;53.522;9.806;2023-06-24T02:19:36;33.27;;;20.07;;
4074;SDS011;2052;53.522;9.806;2023-06-24T02:22:06;28.83;;;17.77;;
4074;SDS011;2052;53.522;9.806;2023-06-24T02:24:34;35.90;;;18.97;;
4074;SDS011;2052;53.522;9.806;2023-06-24T02:27:01;35.27;;;20.10;;
4074;SDS011;2052;53.522;9.806;2023-06-24T02:29:29;36.60;;;20.47;;
4074;SDS011;2052;53.522;9.806;2023-06-24T02:32:00;35.20;;;20.20;;
4074;SDS011;2052;53.522;9.806;2023-06-24T02:34:26;38.73;;;19.53;;
4074;SDS011;2052;53.522;9.806;2023-06-24T02:36:53;37.60;;;20.70;;
4074;SDS011;2052;53.522;9.806;2023-06-24T02:39:21;43.13;;;19.73;;
4074;SDS011;2052;53.522;9.806;2023-06-24T02:41:49;30.10;;;17.87;;
4074;SDS011;2052;53.522;9.806;2023-06-24T02:44:17;36.97;;;20.30;;
4074;SDS011;2052;53.522;9.806;2023-06-24T02:46:44;36.53;;;19.30;;
4074;SDS011;2052;53.522;9.806;2023-06-24T02:49:12;40.60;;;21.40;;
4074;SDS011;2052;53.522;9.806;2023-06-24T02:51:41;38.40;;;20.23;;
4074;SDS011;2052;53.522;9.806;2023-06-24T02:54:07;36.30;;;20.27;;
4074;SDS011;2052;53.522;9.806;2023-06-24T02:56:38;40.70;;;21.57;;
4074;SDS011;2052;53.522;9.806;2023-06-24T02:59:06;38.87;;;18.30;;
4074;SDS011;2052;53.522;9.806;2023-06-24T03:01:34;40.20;;;20.70;;
4074;SDS011;2052;53.522;9.806;2023-06-24T03:04:04;36.13;;;19.73;;
4074;SDS011;2052;53.522;9.806;2023-06-24T03:06:31;37.07;;;19.60;;
4074;SDS011;2052;53.522;9.806;2023-06-24T03:09:02;36.13;;;20.33;;
4074;SDS011;2052;53.522;9.806;2023-06-24T03:11:29;29.87;;;18.00;;
4074;SDS011;2052;53.522;9.806;2023-06-24T03:13:57;29.77;;;17.67;;
4074;SDS011;2052;53.522;9.806;2023-06-24T03:16:24;34.53;;;18.27;;
4074;SDS011;2052;53.522;9.806;2023-06-24T03:18:50;38.20;;;19.73;;
4074;SDS011;2052;53.522;9.806;2023-06-24T03:21:17;25.20;;;15.50;;
4074;SDS011;2052;53.522;9.806;2023-06-24T03:23:44;21.67;;;14.27;;
4074;SDS011;2052;53.522;9.806;2023-06-24T03:26:11;28.40;;;16.33;;
4074;SDS011;2052;53.522;9.806;2023-06-24T03:28:39;22.53;;;14.20;;
4074;SDS011;2052;53.522;9.806;2023-06-24T03:31:08;28.70;;;15.90;;
4074;SDS011;2052;53.522;9.806;2023-06-24T03:33:35;27.67;;;16.07;;
4074;SDS011;2052;53.522;9.806;2023-06-24T03:36:02;25.10;;;16.33;;
4074;SDS011;2052;53.522;9.806;2023-06-24T03:38:29;24.20;;;14.77;;
4074;SDS011;2052;53.522;9.806;2023-06-24T03:40:56;26.40;;;16.13;;
4074;SDS011;2052;53.522;9.806;2023-06-24T03:43:23;25.70;;;15.73;;
4074;SDS011;2052;53.522;9.806;2023-06-24T03:45:50;23.07;;;15.33;;
4074;SDS011;2052;53.522;9.806;2023-06-24T03:48:18;27.40;;;17.03;;
4074;SDS011;2052;53.522;9.806;2023-06-24T03:50:45;27.03;;;15.90;;
4074;SDS011;2052;53.522;9.806;2023-06-24T03:53:11;20.83;;;15.40;;
4074;SDS011;2052;53.522;9.806;2023-06-24T03:55:38;20.10;;;13.47;;
4074;SDS011;2052;53.522;9.806;2023-06-24T03:58:04;21.00;;;12.80;;
4074;SDS011;2052;53.522;9.806;2023-06-24T04:00:31;20.53;;;12.03;;
4074;SDS011;2052;53.522;9.806;2023-06-24T04:02:57;15.93;;;10.90;;
4074;SDS011;2052;53.522;9.806;2023-06-24T04:05:30;22.77;;;12.67;;
4074;SDS011;2052;53.522;9.806;2023-06-24T04:07:57;17.07;;;12.30;;
4074;SDS011;2052;53.522;9.806;2023-06-24T04:10:24;17.70;;;12.80;;
4074;SDS011;2052;53.522;9.806;2023-06-24T04:12:50;19.63;;;12.17;;
4074;SDS011;2052;53.522;9.806;2023-06-24T04:15:18;18.27;;;12.60;;
4074;SDS011;2052;53.522;9.806;2023-06-24T04:17:46;18.70;;;12.07;;
4074;SDS011;2052;53.522;9.806;2023-06-24T04:20:12;17.00;;;11.83;;
4074;SDS011;2052;53.522;9.806;2023-06-24T04:22:45;22.13;;;13.40;;
4074;SDS011;2052;53.522;9.806;2023-06-24T04:25:13;18.50;;;13.50;;
4074;SDS011;2052;53.522;9.806;2023-06-24T04:27:40;21.10;;;14.47;;
4074;SDS011;2052;53.522;9.806;2023-06-24T04:30:07;18.93;;;13.00;;
4074;SDS011;2052;53.522;9.806;2023-06-24T04:32:34;17.23;;;13.30;;
4074;SDS011;2052;53.522;9.806;2023-06-24T04:35:01;21.20;;;13.60;;
4074;SDS011;2052;53.522;9.806;2023-06-24T04:37:29;21.63;;;12.47;;
4074;SDS011;2052;53.522;9.806;2023-06-24T04:39:59;20.20;;;15.37;;
4074;SDS011;2052;53.522;9.806;2023-06-24T04:42:26;18.30;;;13.13;;
4074;SDS011;2052;53.522;9.806;2023-06-24T04:44:53;17.40;;;11.03;;
4074;SDS011;2052;53.522;9.806;2023-06-24T04:47:19;16.10;;;11.17;;
4074;SDS011;2052;53.522;9.806;2023-06-24T04:49:46;14.50;;;11.30;;
4074;SDS011;2052;53.522;9.806;2023-06-24T04:52:12;14.00;;;10.30;;
4074;SDS011;2052;53.522;9.806;2023-06-24T04:54:41;16.43;;;11.40;;
4074;SDS011;2052;53.522;9.806;2023-06-24T04:57:09;16.27;;;11.43;;
4074;SDS011;2052;53.522;9.806;2023-06-24T04:59:50;16.00;;;12.00;;
4074;SDS011;2052;53.522;9.806;2023-06-24T05:02:17;16.00;;;11.80;;
4074;SDS011;2052;53.522;9.806;2023-06-24T05:04:43;14.67;;;11.20;;
4074;SDS011;2052;53.522;9.806;2023-06-24T05:07:10;14.70;;;11.00;;
4074;SDS011;2052;53.522;9.806;2023-06-24T05:09:44;15.90;;;11.53;;
4074;SDS011;2052;53.522;9.806;2023-06-24T05:12:14;16.00;;;11.93;;
4074;SDS011;2052;53.522;9.806;2023-06-24T05:14:41;16.33;;;10.87;;
4074;SDS011;2052;53.522;9.806;2023-06-24T05:17:08;13.03;;;10.10;;
4074;SDS011;2052;53.522;9.806;2023-06-24T05:19:35;10.40;;;9.30;;
4074;SDS011;2052;53.522;9.806;2023-06-24T05:22:02;15.03;;;10.50;;
4074;SDS011;2052;53.522;9.806;2023-06-24T05:24:29;14.97;;;12.03;;
4074;SDS011;2052;53.522;9.806;2023-06-24T05:26:56;12.47;;;9.13;;
4074;SDS011;2052;53.522;9.806;2023-06-24T05:29:24;15.90;;;11.70;;
4074;SDS011;2052;53.522;9.806;2023-06-24T05:31:52;13.80;;;10.70;;
4074;SDS011;2052;53.522;9.806;2023-06-24T05:34:21;13.23;;;10.43;;
4074;SDS011;2052;53.522;9.806;2023-06-24T05:36:47;20.90;;;11.40;;
4074;SDS011;2052;53.522;9.806;2023-06-24T05:39:14;16.30;;;11.60;;
4074;SDS011;2052;53.522;9.806;2023-06-24T05:41:41;12.87;;;10.50;;
4074;SDS011;2052;53.522;9.806;2023-06-24T05:44:08;13.90;;;10.47;;
4074;SDS011;2052;53.522;9.806;2023-06-24T05:46:37;11.87;;;9.40;;
4074;SDS011;2052;53.522;9.806;2023-06-24T05:49:04;10.67;;;8.47;;
4074;SDS011;2052;53.522;9.806;2023-06-24T05:51:30;12.63;;;9.40;;
4074;SDS011;2052;53.522;9.806;2023-06-24T05:53:57;13.67;;;10.40;;
4074;SDS011;2052;53.522;9.806;2023-06-24T05:56:24;10.93;;;8.73;;
4074;SDS011;2052;53.522;9.806;2023-06-24T05:58:51;10.50;;;9.40;;
4074;SDS011;2052;53.522;9.806;2023-06-24T06:01:17;11.80;;;9.30;;
4074;SDS011;2052;53.522;9.806;2023-06-24T06:03:45;11.73;;;8.73;;
4074;SDS011;2052;53.522;9.806;2023-06-24T06:06:12;9.17;;;8.10;;
4074;SDS011;2052;53.522;9.806;2023-06-24T06:08:38;12.03;;;8.70;;
4074;SDS011;2052;53.522;9.806;2023-06-24T06:11:05;10.73;;;8.03;;
4074;SDS011;2052;53.522;9.806;2023-06-24T06:13:32;11.70;;;8.93;;
4074;SDS011;2052;53.522;9.806;2023-06-24T06:15:59;12.10;;;8.77;;
4074;SDS011;2052;53.522;9.806;2023-06-24T06:18:28;11.53;;;10.30;;
4074;SDS011;2052;53.522;9.806;2023-06-24T06:20:56;12.00;;;8.80;;
4074;SDS011;2052;53.522;9.806;2023-06-24T06:23:22;11.10;;;8.57;;
4074;SDS011;2052;53.522;9.806;2023-06-24T06:25:51;8.67;;;7.77;;
4074;SDS011;2052;53.522;9.806;2023-06-24T06:28:18;11.63;;;9.10;;
4074;SDS011;2052;53.522;9.806;2023-06-24T06:30:45;15.73;;;9.93;;
4074;SDS011;2052;53.522;9.806;2023-06-24T06:33:12;7.60;;;6.40;;
4074;SDS011;2052;53.522;9.806;2023-06-24T06:35:39;10.70;;;6.40;;
4074;SDS011;2052;53.522;9.806;2023-06-24T06:38:07;10.13;;;7.50;;
4074;SDS011;2052;53.522;9.806;2023-06-24T06:40:33;8.27;;;7.37;;
4074;SDS011;2052;53.522;9.806;2023-06-24T06:43:00;6.83;;;6.13;;
4074;SDS011;2052;53.522;9.806;2023-06-24T06:45:27;6.90;;;5.67;;
4074;SDS011;2052;53.522;9.806;2023-06-24T06:47:53;6.50;;;5.20;;
4074;SDS011;2052;53.522;9.806;2023-06-24T06:50:20;12.60;;;6.63;;
4074;SDS011;2052;53.522;9.806;2023-06-24T06:52:46;8.10;;;6.20;;
4074;SDS011;2052;53.522;9.806;2023-06-24T06:55:14;9.20;;;5.70;;
4074;SDS011;2052;53.522;9.806;2023-06-24T06:57:41;18.57;;;5.80;;
4074;SDS011;2052;53.522;9.806;2023-06-24T07:00:08;7.87;;;5.20;;
4074;SDS011;2052;53.522;9.806;2023-06-24T07:02:35;6.30;;;5.30;;
4074;SDS011;2052;53.522;9.806;2023-06-24T07:05:02;7.93;;;4.50;;
4074;SDS011;2052;53.522;9.806;2023-06-24T07:07:29;4.53;;;4.10;;
4074;SDS011;2052;53.522;9.806;2023-06-24T07:09:55;5.83;;;4.33;;
4074;SDS011;2052;53.522;9.806;2023-06-24T07:12:23;5.17;;;3.70;;
4074;SDS011;2052;53.522;9.806;2023-06-24T07:14:50;5.70;;;3.80;;
4074;SDS011;2052;53.522;9.806;2023-06-24T07:17:16;5.97;;;3.93;;
4074;SDS011;2052;53.522;9.806;2023-06-24T07:19:43;5.23;;;4.20;;
4074;SDS011;2052;53.522;9.806;2023-06-24T07:22:10;3.70;;;3.40;;
4074;SDS011;2052;53.522;9.806;2023-06-24T07:24:37;6.00;;;3.73;;
4074;SDS011;2052;53.522;9.806;2023-06-24T07:27:04;4.80;;;3.30;;
4074;SDS011;2052;53.522;9.806;2023-06-24T07:29:32;3.40;;;3.20;;
4074;SDS011;2052;53.522;9.806;2023-06-24T07:31:59;6.80;;;3.10;;
4074;SDS011;2052;53.522;9.806;2023-06-24T07:34:28;5.10;;;3.47;;
4074;SDS011;2052;53.522;9.806;2023-06-24T07:36:55;4.20;;;3.80;;
4074;SDS011;2052;53.522;9.806;2023-06-24T07:39:22;3.83;;;3.30;;
4074;SDS011;2052;53.522;9.806;2023-06-24T07:41:49;4.07;;;3.67;;
4074;SDS011;2052;53.522;9.806;2023-06-24T07:44:15;5.13;;;3.67;;
4074;SDS011;2052;53.522;9.806;2023-06-24T07:46:43;4.43;;;3.33;;
4074;SDS011;2052;53.522;9.806;2023-06-24T07:49:10;4.47;;;3.27;;
4074;SDS011;2052;53.522;9.806;2023-06-24T07:51:36;4.50;;;3.40;;
4074;SDS011;2052;53.522;9.806;2023-06-24T07:54:05;3.77;;;3.37;;
4074;SDS011;2052;53.522;9.806;2023-06-24T07:56:32;4.53;;;3.23;;
4074;SDS011;2052;53.522;9.806;2023-06-24T07:59:00;3.67;;;2.97;;
4074;SDS011;2052;53.522;9.806;2023-06-24T08:01:27;2.97;;;2.77;;
4074;SDS011;2052;53.522;9.806;2023-06-24T08:03:56;3.23;;;2.93;;
4074;SDS011;2052;53.522;9.806;2023-06-24T08:06:22;7.07;;;5.43;;
4074;SDS011;2052;53.522;9.806;2023-06-24T08:08:49;5.07;;;3.97;;
4074;SDS011;2052;53.522;9.806;2023-06-24T08:11:16;5.73;;;3.60;;
4074;SDS011;2052;53.522;9.806;2023-06-24T08:13:42;4.87;;;3.33;;
4074;SDS011;2052;53.522;9.806;2023-06-24T08:16:09;4.93;;;3.57;;
4074;SDS011;2052;53.522;9.806;2023-06-24T08:18:35;3.33;;;3.03;;
4074;SDS011;2052;53.522;9.806;2023-06-24T08:21:03;4.23;;;3.23;;
4074;SDS011;2052;53.522;9.806;2023-06-24T08:23:30;4.07;;;3.23;;
4074;SDS011;2052;53.522;9.806;2023-06-24T08:25:56;3.83;;;3.43;;
4074;SDS011;2052;53.522;9.806;2023-06-24T08:28:23;3.30;;;3.00;;
4074;SDS011;2052;53.522;9.806;2023-06-24T08:30:50;4.70;;;4.00;;
4074;SDS011;2052;53.522;9.806;2023-06-24T08:33:16;3.30;;;3.10;;
4074;SDS011;2052;53.522;9.806;2023-06-24T08:35:43;4.97;;;3.20;;
4074;SDS011;2052;53.522;9.806;2023-06-24T08:38:11;4.90;;;3.60;;
4074;SDS011;2052;53.522;9.806;2023-06-24T08:40:37;3.67;;;3.37;;
4074;SDS011;2052;53.522;9.806;2023-06-24T08:43:05;3.73;;;3.40;;
4074;SDS011;2052;53.522;9.806;2023-06-24T08:45:31;4.40;;;3.13;;
4074;SDS011;2052;53.522;9.806;2023-06-24T08:47:58;5.57;;;3.70;;
4074;SDS011;2052;53.522;9.806;2023-06-24T08:50:26;4.87;;;3.40;;
4074;SDS011;2052;53.522;9.806;2023-06-24T08:52:53;5.70;;;3.43;;
4074;SDS011;2052;53.522;9.806;2023-06-24T08:55:22;3.50;;;3.07;;
4074;SDS011;2052;53.522;9.806;2023-06-24T08:57:49;5.03;;;4.13;;
4074;SDS011;2052;53.522;9.806;2023-06-24T09:00:16;3.60;;;3.30;;
4074;SDS011;2052;53.522;9.806;2023-06-24T09:02:43;4.93;;;3.90;;
4074;SDS011;2052;53.522;9.806;2023-06-24T09:05:11;3.93;;;3.53;;
4074;SDS011;2052;53.522;9.806;2023-06-24T09:07:38;4.63;;;4.20;;
4074;SDS011;2052;53.522;9.806;2023-06-24T09:10:04;5.57;;;4.50;;
4074;SDS011;2052;53.522;9.806;2023-06-24T09:12:33;5.03;;;4.50;;
4074;SDS011;2052;53.522;9.806;2023-06-24T09:15:00;8.00;;;4.37;;
4074;SDS011;2052;53.522;9.806;2023-06-24T09:17:27;11.50;;;5.20;;
4074;SDS011;2052;53.522;9.806;2023-06-24T09:19:54;4.90;;;4.50;;
4074;SDS011;2052;53.522;9.806;2023-06-24T09:22:30;5.13;;;4.63;;
4074;SDS011;2052;53.522;9.806;2023-06-24T09:24:57;6.57;;;5.10;;
4074;SDS011;2052;53.522;9.806;2023-06-24T09:27:30;7.70;;;5.10;;
4074;SDS011;2052;53.522;9.806;2023-06-24T09:29:59;5.20;;;4.70;;
4074;SDS011;2052;53.522;9.806;2023-06-24T09:32:26;7.53;;;4.90;;
4074;SDS011;2052;53.522;9.806;2023-06-24T09:34:55;7.03;;;5.20;;
4074;SDS011;2052;53.522;9.806;2023-06-24T09:37:22;7.70;;;6.00;;
4074;SDS011;2052;53.522;9.806;2023-06-24T09:39:49;8.50;;;5.40;;
4074;SDS011;2052;53.522;9.806;2023-06-24T09:42:15;5.90;;;5.30;;
4074;SDS011;2052;53.522;9.806;2023-06-24T09:44:52;7.50;;;6.07;;
4074;SDS011;2052;53.522;9.806;2023-06-24T09:47:20;6.80;;;5.53;;
4074;SDS011;2052;53.522;9.806;2023-06-24T09:49:50;8.37;;;6.37;;
4074;SDS011;2052;53.522;9.806;2023-06-24T09:52:16;10.03;;;8.43;;
4074;SDS011;2052;53.522;9.806;2023-06-24T09:54:44;7.93;;;6.63;;
4074;SDS011;2052;53.522;9.806;2023-06-24T09:57:14;8.10;;;6.83;;
4074;SDS011;2052;53.522;9.806;2023-06-24T09:59:41;9.53;;;6.10;;
4074;SDS011;2052;53.522;9.806;2023-06-24T10:02:09;7.07;;;5.63;;
4074;SDS011;2052;53.522;9.806;2023-06-24T10:04:40;10.37;;;6.27;;
4074;SDS011;2052;53.522;9.806;2023-06-24T10:07:07;8.17;;;6.00;;
4074;SDS011;2052;53.522;9.806;2023-06-24T10:09:34;10.37;;;6.60;;
4074;SDS011;2052;53.522;9.806;2023-06-24T10:12:00;8.30;;;6.30;;
4074;SDS011;2052;53.522;9.806;2023-06-24T10:14:27;12.87;;;7.60;;
4074;SDS011;2052;53.522;9.806;2023-06-24T10:17:00;10.87;;;6.90;;
4074;SDS011;2052;53.522;9.806;2023-06-24T10:19:27;9.47;;;6.17;;
4074;SDS011;2052;53.522;9.806;2023-06-24T10:21:57;8.23;;;6.70;;
4074;SDS011;2052;53.522;9.806;2023-06-24T10:24:28;7.20;;;5.93;;
4074;SDS011;2052;53.522;9.806;2023-06-24T10:27:00;17.43;;;7.10;;
4074;SDS011;2052;53.522;9.806;2023-06-24T10:29:31;8.60;;;6.90;;
4074;SDS011;2052;53.522;9.806;2023-06-24T10:32:00;8.27;;;6.93;;
4074;SDS011;2052;53.522;9.806;2023-06-24T10:34:38;8.13;;;5.33;;
4074;SDS011;2052;53.522;9.806;2023-06-24T10:37:09;7.90;;;6.60;;
4074;SDS011;2052;53.522;9.806;2023-06-24T10:39:47;7.83;;;5.57;;
4074;SDS011;2052;53.522;9.806;2023-06-24T10:42:36;9.40;;;5.93;;
4074;SDS011;2052;53.522;9.806;2023-06-24T10:45:13;6.60;;;5.90;;
4074;SDS011;2052;53.522;9.806;2023-06-24T10:47:44;9.63;;;6.70;;
4074;SDS011;2052;53.522;9.806;2023-06-24T10:50:12;9.53;;;5.83;;
4074;SDS011;2052;53.522;9.806;2023-06-24T10:52:41;8.73;;;6.83;;
4074;SDS011;2052;53.522;9.806;2023-06-24T10:55:09;5.53;;;5.00;;
4074;SDS011;2052;53.522;9.806;2023-06-24T10:57:36;6.40;;;5.30;;
4074;SDS011;2052;53.522;9.806;2023-06-24T11:00:03;10.50;;;5.50;;
4074;SDS011;2052;53.522;9.806;2023-06-24T11:02:30;9.40;;;5.63;;
4074;SDS011;2052;53.522;9.806;2023-06-24T11:04:58;6.93;;;5.10;;
4074;SDS011;2052;53.522;9.806;2023-06-24T11:07:26;5.50;;;5.00;;
4074;SDS011;2052;53.522;9.806;2023-06-24T11:09:55;5.90;;;5.17;;
4074;SDS011;2052;53.522;9.806;2023-06-24T11:12:23;5.70;;;4.77;;
4074;SDS011;2052;53.522;9.806;2023-06-24T11:14:50;6.93;;;5.27;;
4074;SDS011;2052;53.522;9.806;2023-06-24T11:17:20;6.47;;;5.80;;
4074;SDS011;2052;53.522;9.806;2023-06-24T11:19:52;6.20;;;5.20;;
4074;SDS011;2052;53.522;9.806;2023-06-24T11:22:29;6.23;;;4.90;;
4074;SDS011;2052;53.522;9.806;2023-06-24T11:24:59;7.60;;;4.30;;
4074;SDS011;2052;53.522;9.806;2023-06-24T11:27:25;5.97;;;5.17;;
4074;SDS011;2052;53.522;9.806;2023-06-24T11:29:53;5.33;;;4.80;;
4074;SDS011;2052;53.522;9.806;2023-06-24T11:32:20;6.80;;;4.60;;
4074;SDS011;2052;53.522;9.806;2023-06-24T11:34:47;4.33;;;3.93;;
4074;SDS011;2052;53.522;9.806;2023-06-24T11:37:16;4.97;;;4.10;;
4074;SDS011;2052;53.522;9.806;2023-06-24T11:39:43;4.97;;;4.47;;
4074;SDS011;2052;53.522;9.806;2023-06-24T11:42:15;4.90;;;4.07;;
4074;SDS011;2052;53.522;9.806;2023-06-24T11:44:41;5.40;;;4.47;;
4074;SDS011;2052;53.522;9.806;2023-06-24T11:47:10;7.70;;;5.07;;
4074;SDS011;2052;53.522;9.806;2023-06-24T11:49:51;6.87;;;5.17;;
4074;SDS011;2052;53.522;9.806;2023-06-24T11:55:18;8.30;;;4.17;;
4074;SDS011;2052;53.522;9.806;2023-06-24T11:57:47;6.20;;;4.40;;
4074;SDS011;2052;53.522;9.806;2023-06-24T12:00:19;6.90;;;5.40;;
4074;SDS011;2052;53.522;9.806;2023-06-24T12:02:49;6.07;;;4.33;;
4074;SDS011;2052;53.522;9.806;2023-06-24T12:05:19;9.57;;;7.00;;
4074;SDS011;2052;53.522;9.806;2023-06-24T12:07:50;8.90;;;7.20;;
4074;SDS011;2052;53.522;9.806;2023-06-24T12:10:17;7.07;;;5.30;;
4074;SDS011;2052;53.522;9.806;2023-06-24T12:12:44;5.33;;;4.00;;
4074;SDS011;2052;53.522;9.806;2023-06-24T12:15:12;4.60;;;4.07;;
4074;SDS011;2052;53.522;9.806;2023-06-24T12:17:39;5.83;;;3.83;;
4074;SDS011;2052;53.522;9.806;2023-06-24T12:20:06;7.10;;;5.10;;
4074;SDS011;2052;53.522;9.806;2023-06-24T12:22:34;9.87;;;5.70;;
4074;SDS011;2052;53.522;9.806;2023-06-24T12:25:01;5.70;;;4.70;;
4074;SDS011;2052;53.522;9.806;2023-06-24T12:27:28;7.03;;;4.10;;
4074;SDS011;2052;53.522;9.806;2023-06-24T12:29:54;4.80;;;4.40;;
4074;SDS011;2052;53.522;9.806;2023-06-24T12:32:24;5.80;;;4.70;;
4074;SDS011;2052;53.522;9.806;2023-06-24T12:34:51;5.60;;;4.30;;
4074;SDS011;2052;53.522;9.806;2023-06-24T12:37:18;4.97;;;4.47;;
4074;SDS011;2052;53.522;9.806;2023-06-24T12:39:44;4.57;;;4.17;;
4074;SDS011;2052;53.522;9.806;2023-06-24T12:42:11;4.93;;;4.30;;
4074;SDS011;2052;53.522;9.806;2023-06-24T12:44:37;5.73;;;4.53;;
4074;SDS011;2052;53.522;9.806;2023-06-24T12:47:04;4.97;;;4.40;;
4074;SDS011;2052;53.522;9.806;2023-06-24T12:49:32;6.27;;;4.10;;
4074;SDS011;2052;53.522;9.806;2023-06-24T12:51:59;6.77;;;4.50;;
4074;SDS011;2052;53.522;9.806;2023-06-24T12:54:25;6.43;;;4.00;;
4074;SDS011;2052;53.522;9.806;2023-06-24T12:56:52;5.97;;;4.17;;
4074;SDS011;2052;53.522;9.806;2023-06-24T12:59:20;7.37;;;5.20;;
4074;SDS011;2052;53.522;9.806;2023-06-24T13:01:47;5.57;;;4.70;;
4074;SDS011;2052;53.522;9.806;2023-06-24T13:04:13;4.97;;;4.47;;
4074;SDS011;2052;53.522;9.806;2023-06-24T13:06:41;4.73;;;3.37;;
4074;SDS011;2052;53.522;9.806;2023-06-24T13:09:08;7.70;;;6.50;;
4074;SDS011;2052;53.522;9.806;2023-06-24T13:11:34;5.40;;;3.87;;
4074;SDS011;2052;53.522;9.806;2023-06-24T13:14:02;5.50;;;4.37;;
4074;SDS011;2052;53.522;9.806;2023-06-24T13:16:29;5.40;;;4.30;;
4074;SDS011;2052;53.522;9.806;2023-06-24T13:18:55;5.80;;;4.00;;
4074;SDS011;2052;53.522;9.806;2023-06-24T13:21:22;8.17;;;4.50;;
4074;SDS011;2052;53.522;9.806;2023-06-24T13:23:50;8.00;;;4.00;;
4074;SDS011;2052;53.522;9.806;2023-06-24T13:26:17;4.47;;;4.00;;
4074;SDS011;2052;53.522;9.806;2023-06-24T13:28:43;6.40;;;4.63;;
4074;SDS011;2052;53.522;9.806;2023-06-24T13:31:10;5.43;;;3.57;;
4074;SDS011;2052;53.522;9.806;2023-06-24T13:33:36;5.87;;;4.53;;
4074;SDS011;2052;53.522;9.806;2023-06-24T13:36:03;6.07;;;4.37;;
4074;SDS011;2052;53.522;9.806;2023-06-24T13:38:30;4.87;;;4.23;;
4074;SDS011;2052;53.522;9.806;2023-06-24T13:40:59;9.40;;;4.13;;
4074;SDS011;2052;53.522;9.806;2023-06-24T13:43:25;7.60;;;4.50;;
4074;SDS011;2052;53.522;9.806;2023-06-24T13:45:52;4.37;;;3.97;;
4074;SDS011;2052;53.522;9.806;2023-06-24T13:48:18;6.97;;;4.60;;
4074;SDS011;2052;53.522;9.806;2023-06-24T13:50:45;8.37;;;4.53;;
4074;SDS011;2052;53.522;9.806;2023-06-24T13:53:11;7.10;;;4.40;;
4074;SDS011;2052;53.522;9.806;2023-06-24T13:55:38;6.30;;;4.10;;
4074;SDS011;2052;53.522;9.806;2023-06-24T13:58:06;4.83;;;4.43;;
4074;SDS011;2052;53.522;9.806;2023-06-24T14:00:32;4.20;;;3.80;;
4074;SDS011;2052;53.522;9.806;2023-06-24T14:02:59;4.73;;;3.97;;
4074;SDS011;2052;53.522;9.806;2023-06-24T14:05:25;4.07;;;3.67;;
4074;SDS011;2052;53.522;9.806;2023-06-24T14:07:52;6.00;;;4.10;;
4074;SDS011;2052;53.522;9.806;2023-06-24T14:10:19;3.43;;;3.13;;
4074;SDS011;2052;53.522;9.806;2023-06-24T14:12:46;7.53;;;3.87;;
4074;SDS011;2052;53.522;9.806;2023-06-24T14:15:21;3.90;;;3.50;;
4074;SDS011;2052;53.522;9.806;2023-06-24T14:17:51;4.87;;;4.30;;
4074;SDS011;2052;53.522;9.806;2023-06-24T14:20:17;4.40;;;3.77;;
4074;SDS011;2052;53.522;9.806;2023-06-24T14:22:47;4.87;;;4.00;;
4074;SDS011;2052;53.522;9.806;2023-06-24T14:25:14;5.00;;;4.50;;
4074;SDS011;2052;53.522;9.806;2023-06-24T14:27:40;5.67;;;4.40;;
4074;SDS011;2052;53.522;9.806;2023-06-24T14:30:07;6.03;;;4.17;;
4074;SDS011;2052;53.522;9.806;2023-06-24T14:32:36;4.83;;;4.33;;
4074;SDS011;2052;53.522;9.806;2023-06-24T14:35:03;3.80;;;3.50;;
4074;SDS011;2052;53.522;9.806;2023-06-24T14:37:31;4.60;;;4.07;;
4074;SDS011;2052;53.522;9.806;2023-06-24T14:39:58;5.07;;;3.70;;
4074;SDS011;2052;53.522;9.806;2023-06-24T14:42:24;6.30;;;5.33;;
4074;SDS011;2052;53.522;9.806;2023-06-24T14:44:51;4.77;;;4.00;;
4074;SDS011;2052;53.522;9.806;2023-06-24T14:47:18;3.90;;;3.40;;
4074;SDS011;2052;53.522;9.806;2023-06-24T14:49:46;5.30;;;4.00;;
4074;SDS011;2052;53.522;9.806;2023-06-24T14:52:13;4.70;;;4.20;;
4074;SDS011;2052;53.522;9.806;2023-06-24T14:54:41;4.80;;;4.30;;
4074;SDS011;2052;53.522;9.806;2023-06-24T14:57:07;4.47;;;4.07;;
4074;SDS011;2052;53.522;9.806;2023-06-24T14:59:34;5.80;;;4.60;;
4074;SDS011;2052;53.522;9.806;2023-06-24T15:02:01;9.10;;;4.03;;
4074;SDS011;2052;53.522;9.806;2023-06-24T15:04:27;5.87;;;4.87;;
4074;SDS011;2052;53.522;9.806;2023-06-24T15:06:58;6.37;;;4.47;;
4074;SDS011;2052;53.522;9.806;2023-06-24T15:09:25;5.93;;;4.37;;
4074;SDS011;2052;53.522;9.806;2023-06-24T15:11:52;4.40;;;4.00;;